createdAt,value
2018-11-23T00:00:54.784Z,34.23
2018-11-23T00:01:58.811Z,33.90
2018-11-23T00:03:03.132Z,35.43
2018-11-23T00:04:07.278Z,33.85
2018-11-23T00:05:11.473Z,31.68
2018-11-23T00:06:15.508Z,33.48
2018-11-23T00:07:19.516Z,33.80
2018-11-23T00:08:23.556Z,33.63
2018-11-23T00:09:27.600Z,34.92
2018-11-23T00:10:32.818Z,32.33
2018-11-23T00:11:36.822Z,34.33
2018-11-23T00:12:43.852Z,35.20
2018-11-23T00:13:47.903Z,33.73
2018-11-23T00:14:51.911Z,34.45
2018-11-23T00:15:55.940Z,35.88
2018-11-23T00:16:59.937Z,36.93
2018-11-23T00:18:03.998Z,35.52
2018-11-23T00:19:08.079Z,35.78
2018-11-23T00:20:17.112Z,33.78
2018-11-23T00:21:21.116Z,32.20
2018-11-23T00:22:25.161Z,34.58
2018-11-23T00:23:29.205Z,33.48
2018-11-23T00:24:33.261Z,32.90
2018-11-23T00:25:37.277Z,32.38
2018-11-23T00:26:41.225Z,31.75
2018-11-23T00:27:45.338Z,32.90
2018-11-23T00:28:49.365Z,33.38
2018-11-23T00:29:53.391Z,33.10
2018-11-23T00:30:57.404Z,33.23
2018-11-23T00:32:01.533Z,33.05
2018-11-23T00:33:05.515Z,33.50
2018-11-23T00:34:09.492Z,34.10
2018-11-23T00:35:15.230Z,33.13
2018-11-23T00:36:19.176Z,32.28
2018-11-23T00:37:23.178Z,34.20
2018-11-23T00:38:27.269Z,32.80
2018-11-23T00:39:36.583Z,33.90
2018-11-23T00:40:40.584Z,32.35
2018-11-23T00:41:44.609Z,31.73
2018-11-23T00:42:48.896Z,30.95
2018-11-23T00:43:52.939Z,32.03
2018-11-23T00:44:56.921Z,32.75
2018-11-23T00:46:00.965Z,33.02
2018-11-23T00:47:05.093Z,31.52
2018-11-23T00:48:09.084Z,31.62
2018-11-23T00:49:13.070Z,33.53
2018-11-23T00:50:18.444Z,34.05
2018-11-23T00:51:22.497Z,32.45
2018-11-23T00:52:26.555Z,32.45
2018-11-23T00:53:30.597Z,33.83
2018-11-23T00:54:34.597Z,32.15
2018-11-23T00:55:38.611Z,30.77
2018-11-23T00:56:42.655Z,31.70
2018-11-23T00:57:46.743Z,31.90
2018-11-23T00:58:50.875Z,30.52
2018-11-23T00:59:54.931Z,30.88
2018-11-23T01:00:59.020Z,32.48
2018-11-23T01:02:03.824Z,30.05
2018-11-23T01:03:07.924Z,31.68
2018-11-23T01:04:11.972Z,30.32
2018-11-23T01:05:17.424Z,30.62
2018-11-23T01:06:21.480Z,30.43
2018-11-23T01:07:25.593Z,32.08
2018-11-23T01:08:29.596Z,29.67
2018-11-23T01:09:33.676Z,30.02
2018-11-23T01:10:37.722Z,30.20
2018-11-23T01:11:42.337Z,31.37
2018-11-23T01:12:47.565Z,30.02
2018-11-23T01:13:51.532Z,30.10
2018-11-23T01:14:55.538Z,31.65
2018-11-23T01:15:59.623Z,31.15
2018-11-23T01:17:03.619Z,30.97
2018-11-23T01:18:07.603Z,31.02
2018-11-23T01:19:11.616Z,30.55
2018-11-23T01:20:17.602Z,30.88
2018-11-23T01:21:21.685Z,30.20
2018-11-23T01:22:25.744Z,28.42
2018-11-23T01:23:29.738Z,30.50
2018-11-23T01:24:33.720Z,30.00
2018-11-23T01:25:37.780Z,31.60
2018-11-23T01:26:44.738Z,30.50
2018-11-23T01:27:49.978Z,29.70
2018-11-23T01:28:54.516Z,29.00
2018-11-23T01:29:58.533Z,29.45
2018-11-23T01:31:02.599Z,30.50
2018-11-23T01:32:06.757Z,30.15
2018-11-23T01:33:10.836Z,29.42
2018-11-23T01:34:14.861Z,29.92
2018-11-23T01:35:18.875Z,30.48
2018-11-23T01:36:22.882Z,29.63
2018-11-23T01:37:26.920Z,29.95
2018-11-23T01:38:30.941Z,30.45
2018-11-23T01:39:35.069Z,28.87
2018-11-23T01:40:39.056Z,33.02
2018-11-23T01:41:43.056Z,29.80
2018-11-23T01:42:47.394Z,31.90
2018-11-23T01:43:51.377Z,31.02
2018-11-23T01:44:55.433Z,32.70
2018-11-23T01:45:59.480Z,32.08
2018-11-23T01:47:03.546Z,32.10
2018-11-23T01:48:07.605Z,31.05
2018-11-23T01:49:12.034Z,32.78
2018-11-23T01:50:17.830Z,30.90
2018-11-23T01:51:21.832Z,31.87
2018-11-23T01:52:25.860Z,31.45
2018-11-23T01:53:29.888Z,32.00
2018-11-23T01:54:33.836Z,32.35
2018-11-23T01:55:37.817Z,30.35
2018-11-23T01:56:41.804Z,31.90
2018-11-23T01:57:46.076Z,32.65
2018-11-23T01:58:50.012Z,30.95
2018-11-23T01:59:54.063Z,31.82
2018-11-23T02:00:58.124Z,32.73
2018-11-23T02:02:02.090Z,31.95
2018-11-23T02:03:06.510Z,32.88
2018-11-23T02:04:10.592Z,32.65
2018-11-23T02:05:14.714Z,33.23
2018-11-23T02:06:18.772Z,33.13
2018-11-23T02:07:22.820Z,32.65
2018-11-23T02:08:26.803Z,33.00
2018-11-23T02:09:31.823Z,35.25
2018-11-23T02:10:35.843Z,34.65
2018-11-23T02:11:39.832Z,34.10
2018-11-23T02:12:43.955Z,35.40
2018-11-23T02:13:47.990Z,34.53
2018-11-23T02:14:51.960Z,33.42
2018-11-23T02:15:55.979Z,35.20
2018-11-23T02:17:00.054Z,34.50
2018-11-23T02:18:04.118Z,34.78
2018-11-23T02:19:08.129Z,33.28
2018-11-23T02:20:13.700Z,33.95
2018-11-23T02:21:17.703Z,31.95
2018-11-23T02:22:21.724Z,34.15
2018-11-23T02:23:25.720Z,32.33
2018-11-23T02:24:29.795Z,31.95
2018-11-23T02:25:33.780Z,32.55
2018-11-23T02:26:37.876Z,33.18
2018-11-23T02:27:41.876Z,32.23
2018-11-23T02:28:45.947Z,33.15
2018-11-23T02:29:49.975Z,30.82
2018-11-23T02:30:54.000Z,34.50
2018-11-23T02:31:58.014Z,32.73
2018-11-23T02:33:08.660Z,32.95
2018-11-23T02:34:12.696Z,33.28
2018-11-23T02:35:17.164Z,30.45
2018-11-23T02:36:21.143Z,31.55
2018-11-23T02:37:25.119Z,31.97
2018-11-23T02:38:29.059Z,34.08
2018-11-23T02:39:32.957Z,33.90
2018-11-23T02:40:37.098Z,33.13
2018-11-23T02:41:41.040Z,33.70
2018-11-23T02:42:45.135Z,33.75
2018-11-23T02:43:49.452Z,32.58
2018-11-23T02:44:53.405Z,34.43
2018-11-23T02:45:57.356Z,34.60
2018-11-23T02:47:01.272Z,32.93
2018-11-23T02:48:05.688Z,34.13
2018-11-23T02:49:09.639Z,34.63
2018-11-23T02:50:13.670Z,34.73
2018-11-23T02:51:17.636Z,32.15
2018-11-23T02:52:21.642Z,30.88
2018-11-23T02:53:25.638Z,33.70
2018-11-23T02:54:29.655Z,33.02
2018-11-23T02:55:33.757Z,31.00
2018-11-23T02:56:44.284Z,31.50
2018-11-23T02:57:48.313Z,30.62
2018-11-23T02:58:52.286Z,31.45
2018-11-23T03:00:02.181Z,31.85
2018-11-23T03:01:06.196Z,30.95
2018-11-23T03:02:10.274Z,30.97
2018-11-23T03:03:14.243Z,31.93
2018-11-23T03:04:18.200Z,32.33
2018-11-23T03:05:23.492Z,30.23
2018-11-23T03:06:27.440Z,33.13
2018-11-23T03:07:31.577Z,31.82
2018-11-23T03:08:35.554Z,33.53
2018-11-23T03:09:39.579Z,35.28
2018-11-23T03:10:43.616Z,33.65
2018-11-23T03:11:47.551Z,33.92
2018-11-23T03:12:51.552Z,34.50
2018-11-23T03:13:55.503Z,32.05
2018-11-23T03:14:59.456Z,33.25
2018-11-23T03:16:03.479Z,33.25
2018-11-23T03:17:07.426Z,33.83
2018-11-23T03:18:11.403Z,33.88
2018-11-23T03:19:15.980Z,34.27
2018-11-23T03:20:21.256Z,34.13
2018-11-23T03:21:25.289Z,35.30
2018-11-23T03:22:29.248Z,35.63
2018-11-23T03:23:33.224Z,35.95
2018-11-23T03:24:37.180Z,37.15
2018-11-23T03:25:41.171Z,34.98
2018-11-23T03:26:45.127Z,34.45
2018-11-23T03:27:49.111Z,34.48
2018-11-23T03:28:53.901Z,34.88
2018-11-23T03:29:57.880Z,36.03
2018-11-23T03:31:01.835Z,33.83
2018-11-23T03:32:06.137Z,34.15
2018-11-23T03:33:10.101Z,36.80
2018-11-23T03:34:14.056Z,36.65
2018-11-23T03:35:18.489Z,36.13
2018-11-23T03:36:23.429Z,34.55
2018-11-23T03:37:27.400Z,35.52
2018-11-23T03:38:31.379Z,35.00
2018-11-23T03:39:35.325Z,35.55
2018-11-23T03:40:39.398Z,34.00
2018-11-23T03:41:43.380Z,33.40
2018-11-23T03:42:47.346Z,34.65
2018-11-23T03:43:51.344Z,34.90
2018-11-23T03:44:58.323Z,35.80
2018-11-23T03:46:02.248Z,35.45
2018-11-23T03:47:06.264Z,34.00
2018-11-23T03:48:10.218Z,34.98
2018-11-23T03:49:14.216Z,37.17
2018-11-23T03:50:18.499Z,35.33
2018-11-23T03:51:22.472Z,34.78
2018-11-23T03:52:26.391Z,36.68
2018-11-23T03:53:30.396Z,34.43
2018-11-23T03:54:34.343Z,35.68
2018-11-23T03:55:38.269Z,35.60
2018-11-23T03:56:42.213Z,37.80
2018-11-23T03:57:46.266Z,36.03
2018-11-23T03:58:50.358Z,36.42
2018-11-23T03:59:54.626Z,38.15
2018-11-23T04:00:58.608Z,38.30
2018-11-23T04:02:02.611Z,37.00
2018-11-23T04:03:06.735Z,37.53
2018-11-23T04:04:10.751Z,38.00
2018-11-23T04:05:14.855Z,39.03
2018-11-23T04:06:18.812Z,36.53
2018-11-23T04:07:22.920Z,38.35
2018-11-23T04:08:26.853Z,37.95
2018-11-23T04:09:30.907Z,37.03
2018-11-23T04:10:34.951Z,37.35
2018-11-23T04:11:38.962Z,38.08
2018-11-23T04:12:43.553Z,35.75
2018-11-23T04:13:47.486Z,39.88
2018-11-23T04:14:51.460Z,37.63
2018-11-23T04:15:55.411Z,36.93
2018-11-23T04:16:59.349Z,35.83
2018-11-23T04:18:03.387Z,36.55
2018-11-23T04:19:10.362Z,37.63
2018-11-23T04:20:15.604Z,37.63
2018-11-23T04:21:19.557Z,37.35
2018-11-23T04:22:23.508Z,37.67
2018-11-23T04:23:27.453Z,38.83
2018-11-23T04:24:31.564Z,39.27
2018-11-23T04:25:41.048Z,39.50
2018-11-23T04:26:44.990Z,37.55
2018-11-23T04:27:48.924Z,36.53
2018-11-23T04:28:52.995Z,38.15
2018-11-23T04:29:56.989Z,38.88
2018-11-23T04:31:00.935Z,38.02
2018-11-23T04:32:04.963Z,38.02
2018-11-23T04:33:08.970Z,38.10
2018-11-23T04:34:12.935Z,35.88
2018-11-23T04:35:18.183Z,36.30
2018-11-23T04:36:22.136Z,38.23
2018-11-23T04:37:26.095Z,37.48
2018-11-23T04:38:30.008Z,40.33
2018-11-23T04:39:33.944Z,38.78
2018-11-23T04:40:37.985Z,39.18
2018-11-23T04:41:46.304Z,41.15
2018-11-23T04:42:45.997Z,39.78
2018-11-23T04:43:50.222Z,39.20
2018-11-23T04:44:54.240Z,39.60
2018-11-23T04:45:58.320Z,40.88
2018-11-23T04:47:02.282Z,40.92
2018-11-23T04:48:06.405Z,40.35
2018-11-23T04:49:10.397Z,40.92
2018-11-23T04:50:15.507Z,39.50
2018-11-23T04:51:19.601Z,37.93
2018-11-23T04:52:23.552Z,36.98
2018-11-23T04:53:27.472Z,36.45
2018-11-23T04:54:31.416Z,37.30
2018-11-23T04:55:35.338Z,37.83
2018-11-23T04:56:39.367Z,37.67
2018-11-23T04:57:44.048Z,36.17
2018-11-23T04:58:48.136Z,37.83
2018-11-23T04:59:52.229Z,37.63
2018-11-23T05:00:56.324Z,38.55
2018-11-23T05:02:00.507Z,36.85
2018-11-23T05:03:04.580Z,39.70
2018-11-23T05:04:08.671Z,37.60
2018-11-23T05:05:13.293Z,37.55
2018-11-23T05:06:23.635Z,39.45
2018-11-23T05:07:27.657Z,40.08
2018-11-23T05:08:31.677Z,41.65
2018-11-23T05:09:35.640Z,38.58
2018-11-23T05:10:39.610Z,39.27
2018-11-23T05:11:43.603Z,40.38
2018-11-23T05:12:47.593Z,38.08
2018-11-23T05:13:51.600Z,36.13
2018-11-23T05:14:55.798Z,37.53
2018-11-23T05:15:59.956Z,38.70
2018-11-23T05:17:03.962Z,37.70
2018-11-23T05:18:07.943Z,38.83
2018-11-23T05:19:11.880Z,36.42
2018-11-23T05:20:21.065Z,38.00
2018-11-23T05:21:25.076Z,35.13
2018-11-23T05:22:29.103Z,37.23
2018-11-23T05:23:33.092Z,35.17
2018-11-23T05:24:37.062Z,35.92
2018-11-23T05:25:41.008Z,34.35
2018-11-23T05:26:45.435Z,32.53
2018-11-23T05:27:49.615Z,33.30
2018-11-23T05:28:53.801Z,32.65
2018-11-23T05:29:57.932Z,31.30
2018-11-23T05:31:02.117Z,30.70
2018-11-23T05:32:06.244Z,32.38
2018-11-23T05:33:10.267Z,33.23
2018-11-23T05:34:14.355Z,32.70
2018-11-23T05:35:19.163Z,33.25
2018-11-23T05:36:23.368Z,30.88
2018-11-23T05:37:27.465Z,30.43
2018-11-23T05:38:31.416Z,30.27
2018-11-23T05:39:35.467Z,29.10
2018-11-23T05:40:39.533Z,30.20
2018-11-23T05:41:43.679Z,30.37
2018-11-23T05:42:47.767Z,28.20
2018-11-23T05:43:51.771Z,30.77
2018-11-23T05:44:55.805Z,31.85
2018-11-23T05:45:59.841Z,30.88
2018-11-23T05:47:03.841Z,32.55
2018-11-23T05:48:08.036Z,33.23
2018-11-23T05:49:12.279Z,31.33
2018-11-23T05:50:18.721Z,32.93
2018-11-23T05:51:22.836Z,35.03
2018-11-23T05:52:26.872Z,35.00
2018-11-23T05:53:30.927Z,36.08
2018-11-23T05:54:34.959Z,32.60
2018-11-23T05:55:38.978Z,35.00
2018-11-23T05:56:43.045Z,34.43
2018-11-23T05:57:47.231Z,33.00
2018-11-23T05:58:51.669Z,32.73
2018-11-23T05:59:55.803Z,32.75
2018-11-23T06:00:59.807Z,31.52
2018-11-23T06:02:03.851Z,30.68
2018-11-23T06:03:07.966Z,32.88
2018-11-23T06:04:12.060Z,32.53
2018-11-23T06:05:16.251Z,30.30
2018-11-23T06:06:20.276Z,31.48
2018-11-23T06:07:24.784Z,31.55
2018-11-23T06:08:28.875Z,32.03
2018-11-23T06:09:33.028Z,33.02
2018-11-23T06:10:37.078Z,32.25
2018-11-23T06:11:41.126Z,32.48
2018-11-23T06:12:45.200Z,32.70
2018-11-23T06:13:49.226Z,32.70
2018-11-23T06:14:53.322Z,31.05
2018-11-23T06:15:57.364Z,30.92
2018-11-23T06:17:01.347Z,32.20
2018-11-23T06:18:05.828Z,31.90
2018-11-23T06:19:09.851Z,31.33
2018-11-23T06:20:15.908Z,31.82
2018-11-23T06:21:20.008Z,31.33
2018-11-23T06:22:24.165Z,31.93
2018-11-23T06:23:28.342Z,29.98
2018-11-23T06:24:35.295Z,28.40
2018-11-23T06:25:43.060Z,29.35
2018-11-23T06:26:47.294Z,29.23
2018-11-23T06:27:52.078Z,28.95
2018-11-23T06:28:57.122Z,30.25
2018-11-23T06:30:01.794Z,29.63
2018-11-23T06:31:06.382Z,30.02
2018-11-23T06:32:21.491Z,32.85
2018-11-23T06:33:31.964Z,31.97
2018-11-23T06:34:36.355Z,30.68
2018-11-23T06:35:40.624Z,31.15
2018-11-23T06:36:44.941Z,30.35
2018-11-23T06:37:49.900Z,33.40
2018-11-23T06:38:54.360Z,32.30
2018-11-23T06:39:58.772Z,33.50
2018-11-23T06:41:02.920Z,30.55
2018-11-23T06:42:07.651Z,30.27
2018-11-23T06:43:11.967Z,30.97
2018-11-23T06:44:16.771Z,30.92
2018-11-23T06:45:21.716Z,32.03
2018-11-23T06:46:25.986Z,30.43
2018-11-23T06:47:30.288Z,31.23
2018-11-23T06:48:34.566Z,30.37
2018-11-23T06:49:38.936Z,30.52
2018-11-23T06:50:43.172Z,32.05
2018-11-23T06:51:47.651Z,30.37
2018-11-23T06:52:51.920Z,30.95
2018-11-23T06:53:56.165Z,32.48
2018-11-23T06:55:00.272Z,34.00
2018-11-23T06:56:04.916Z,32.88
2018-11-23T06:57:12.006Z,30.90
2018-11-23T06:58:16.167Z,31.50
2018-11-23T07:00:44.649Z,31.75
2018-11-23T07:01:48.758Z,27.50
2018-11-23T07:02:58.895Z,30.00
2018-11-23T07:03:57.169Z,31.33
2018-11-23T07:05:01.240Z,31.17
2018-11-23T07:06:05.474Z,32.10
2018-11-23T07:07:09.675Z,31.85
2018-11-23T07:08:13.855Z,30.27
2018-11-23T07:09:17.987Z,30.55
2018-11-23T07:10:22.224Z,29.52
2018-11-23T07:11:26.416Z,30.88
2018-11-23T07:12:30.547Z,30.90
2018-11-23T07:13:34.837Z,31.60
2018-11-23T07:14:38.869Z,30.52
2018-11-23T07:15:42.919Z,28.73
2018-11-23T07:16:47.147Z,30.60
2018-11-23T07:17:51.353Z,30.88
2018-11-23T07:18:55.554Z,32.23
2018-11-23T07:19:59.634Z,30.02
2018-11-23T07:21:03.893Z,29.60
2018-11-23T07:22:08.208Z,34.08
2018-11-23T07:23:12.493Z,31.70
2018-11-23T07:24:16.612Z,31.90
2018-11-23T07:25:20.767Z,30.55
2018-11-23T07:26:24.852Z,29.12
2018-11-23T07:27:29.028Z,28.92
2018-11-23T07:28:33.179Z,32.48
2018-11-23T07:29:37.339Z,36.10
2018-11-23T07:30:41.580Z,32.42
2018-11-23T07:31:46.258Z,28.87
2018-11-23T07:32:50.392Z,30.80
2018-11-23T07:33:54.546Z,33.45
2018-11-23T07:34:58.655Z,33.13
2018-11-23T07:36:02.785Z,30.43
2018-11-23T07:37:07.308Z,32.15
2018-11-23T07:38:11.495Z,31.05
2018-11-23T07:39:26.580Z,32.38
2018-11-23T07:40:43.303Z,30.32
2018-11-23T07:41:58.384Z,30.15
2018-11-23T07:43:02.680Z,31.73
2018-11-23T07:44:06.787Z,33.45
2018-11-23T07:45:11.057Z,32.28
2018-11-23T07:46:15.268Z,30.40
2018-11-23T07:47:19.364Z,32.30
2018-11-23T07:48:23.456Z,31.97
2018-11-23T07:49:27.646Z,33.25
2018-11-23T07:50:31.690Z,34.30
2018-11-23T07:51:39.237Z,34.98
2018-11-23T07:52:40.045Z,35.33
2018-11-23T07:53:44.144Z,33.38
2018-11-23T07:54:48.284Z,34.20
2018-11-23T07:55:52.428Z,32.60
2018-11-23T07:56:56.525Z,33.45
2018-11-23T07:58:00.666Z,32.95
2018-11-23T07:59:04.768Z,31.20
2018-11-23T08:00:14.639Z,32.08
2018-11-23T08:01:18.704Z,32.93
2018-11-23T08:02:22.967Z,32.83
2018-11-23T08:03:27.118Z,35.20
2018-11-23T08:04:31.238Z,33.60
2018-11-23T08:05:35.279Z,34.15
2018-11-23T08:06:39.440Z,33.78
2018-11-23T08:07:43.650Z,34.23
2018-11-23T08:08:47.766Z,34.80
2018-11-23T08:09:51.919Z,33.78
2018-11-23T08:10:54.973Z,35.28
2018-11-23T08:11:58.950Z,34.53
2018-11-23T08:13:03.198Z,35.90
2018-11-23T08:14:07.207Z,33.18
2018-11-23T08:15:16.622Z,32.15
2018-11-23T08:16:20.748Z,31.25
2018-11-23T08:17:24.837Z,33.17
2018-11-23T08:18:28.958Z,36.17
2018-11-23T08:19:33.024Z,37.15
2018-11-23T08:20:37.246Z,36.23
2018-11-23T08:21:41.356Z,33.80
2018-11-23T08:22:49.864Z,36.73
2018-11-23T08:23:54.081Z,35.78
2018-11-23T08:24:58.105Z,37.83
2018-11-23T08:26:02.144Z,36.38
2018-11-23T08:27:06.483Z,37.42
2018-11-23T08:28:10.600Z,33.88
2018-11-23T08:29:14.764Z,36.03
2018-11-23T08:30:24.080Z,36.63
2018-11-23T08:31:28.284Z,35.92
2018-11-23T08:32:32.361Z,36.83
2018-11-23T08:33:36.554Z,37.70
2018-11-23T08:34:40.720Z,37.00
2018-11-23T08:35:44.740Z,41.35
2018-11-23T08:36:48.962Z,40.65
2018-11-23T08:37:53.216Z,40.15
2018-11-23T08:38:57.428Z,38.95
2018-11-23T08:40:01.515Z,38.33
2018-11-23T08:41:05.759Z,40.35
2018-11-23T08:42:09.882Z,38.78
2018-11-23T08:43:14.289Z,38.40
2018-11-23T08:44:18.437Z,37.23
2018-11-23T08:45:24.005Z,36.83
2018-11-23T08:46:28.193Z,37.45
2018-11-23T08:47:32.328Z,39.65
2018-11-23T08:48:36.483Z,38.38
2018-11-23T08:49:40.565Z,35.80
2018-11-23T08:50:44.644Z,35.43
2018-11-23T08:51:48.744Z,36.93
2018-11-23T08:52:52.796Z,37.93
2018-11-23T08:53:57.081Z,38.58
2018-11-23T08:55:01.290Z,36.65
2018-11-23T08:56:06.002Z,39.53
2018-11-23T08:57:10.239Z,35.30
2018-11-23T08:58:14.364Z,36.55
2018-11-23T08:59:18.565Z,36.58
2018-11-23T09:00:24.042Z,34.13
2018-11-23T09:01:28.200Z,31.80
2018-11-23T09:02:32.249Z,35.17
2018-11-23T09:03:36.888Z,30.45
2018-11-23T09:04:41.127Z,31.50
2018-11-23T09:05:50.962Z,31.37
2018-11-23T09:06:55.151Z,30.88
2018-11-23T09:07:59.525Z,30.40
2018-11-23T09:09:04.179Z,31.20
2018-11-23T09:10:10.743Z,28.25
2018-11-23T09:11:14.883Z,27.37
2018-11-23T09:12:19.041Z,24.87
2018-11-23T09:13:23.375Z,29.57
2018-11-23T09:14:27.316Z,28.75
2018-11-23T09:15:31.406Z,28.67
2018-11-23T09:16:35.601Z,31.68
2018-11-23T09:17:39.973Z,33.30
2018-11-23T09:18:44.106Z,36.38
2018-11-23T09:19:53.388Z,50.75
2018-11-23T09:20:57.643Z,58.68
2018-11-23T09:22:01.716Z,62.78
2018-11-23T09:23:05.952Z,38.00
2018-11-23T09:24:10.044Z,29.55
2018-11-23T09:25:18.695Z,25.20
2018-11-23T09:26:22.812Z,24.10
2018-11-23T09:27:26.909Z,24.02
2018-11-23T09:28:31.032Z,24.47
2018-11-23T09:29:35.339Z,26.40
2018-11-23T09:30:39.384Z,24.05
2018-11-23T09:31:43.741Z,24.47
2018-11-23T09:32:48.555Z,23.65
2018-11-23T09:33:52.703Z,23.30
2018-11-23T09:34:59.867Z,22.70
2018-11-23T09:36:04.048Z,22.73
2018-11-23T09:37:08.116Z,23.67
2018-11-23T09:38:12.388Z,22.70
2018-11-23T09:39:18.863Z,24.98
2018-11-23T09:40:24.434Z,21.85
2018-11-23T09:41:28.525Z,21.75
2018-11-23T09:42:32.576Z,22.07
2018-11-23T09:43:37.006Z,22.93
2018-11-23T09:44:41.151Z,24.27
2018-11-23T09:45:45.237Z,23.95
2018-11-23T09:46:49.301Z,22.93
2018-11-23T09:47:54.895Z,23.38
2018-11-23T09:48:58.913Z,21.77
2018-11-23T09:50:03.002Z,21.65
2018-11-23T09:51:07.092Z,20.80
2018-11-23T09:52:11.137Z,22.42
2018-11-23T09:53:15.146Z,22.10
2018-11-23T09:54:19.127Z,20.10
2018-11-23T09:55:24.090Z,20.75
2018-11-23T09:56:28.198Z,21.52
2018-11-23T09:57:32.225Z,20.00
2018-11-23T09:58:43.108Z,22.77
2018-11-23T09:59:40.351Z,23.30
2018-11-23T10:00:44.401Z,26.05
2018-11-23T10:08:07.910Z,21.00
2018-11-23T10:09:15.725Z,20.00
2018-11-23T10:10:22.125Z,20.25
2018-11-23T10:11:26.122Z,19.93
2018-11-23T10:12:30.576Z,20.92
2018-11-23T10:13:38.379Z,21.55
2018-11-23T10:14:44.102Z,22.20
2018-11-23T10:15:48.194Z,22.10
2018-11-23T10:16:52.348Z,22.30
2018-11-23T10:17:56.491Z,22.60
2018-11-23T10:19:00.810Z,23.83
2018-11-23T10:20:06.371Z,23.52
2018-11-23T10:21:10.521Z,24.12
2018-11-23T10:22:14.858Z,24.10
2018-11-23T10:23:19.242Z,24.63
2018-11-23T10:24:23.653Z,23.87
2018-11-23T10:25:29.961Z,22.67
2018-11-23T10:26:34.212Z,21.05
2018-11-23T10:27:38.967Z,22.90
2018-11-23T10:28:43.089Z,22.82
2018-11-23T10:29:47.272Z,24.32
2018-11-23T10:30:51.472Z,25.17
2018-11-23T10:31:56.241Z,24.87
2018-11-23T10:33:03.265Z,23.77
2018-11-23T10:34:07.458Z,25.80
2018-11-23T10:35:12.101Z,25.50
2018-11-23T10:36:19.242Z,40.52
2018-11-23T10:37:23.489Z,63.13
2018-11-23T10:38:27.588Z,36.03
2018-11-23T10:39:31.904Z,65.92
2018-11-23T10:40:38.925Z,58.98
2018-11-23T10:41:43.828Z,74.65
2018-11-23T10:42:48.405Z,111.40
2018-11-23T10:43:52.654Z,75.10
2018-11-23T10:44:56.708Z,82.20
2018-11-23T10:46:01.272Z,47.88
2018-11-23T10:47:06.323Z,59.65
2018-11-23T10:48:10.959Z,65.28
2018-11-23T10:49:15.460Z,64.07
2018-11-23T10:50:21.814Z,134.57
2018-11-23T10:51:26.446Z,171.00
2018-11-23T10:52:31.003Z,114.28
2018-11-23T10:53:35.715Z,87.65
2018-11-23T10:54:40.179Z,87.05
2018-11-23T10:55:45.176Z,99.10
2018-11-23T10:56:50.036Z,167.68
2018-11-23T10:57:55.155Z,93.85
2018-11-23T10:59:00.066Z,188.57
2018-11-23T11:00:04.778Z,204.50
2018-11-23T11:01:15.345Z,361.68
2018-11-23T11:02:25.136Z,106.15
2018-11-23T11:03:33.877Z,234.75
2018-11-23T11:04:43.627Z,138.43
2018-11-23T11:05:54.236Z,90.90
2018-11-23T11:07:06.694Z,232.92
2018-11-23T11:08:12.427Z,81.75
2018-11-23T11:09:17.595Z,150.75
2018-11-23T11:10:22.412Z,106.87
2018-11-23T11:11:27.414Z,66.23
2018-11-23T11:12:32.360Z,68.37
2018-11-23T11:13:37.199Z,43.87
2018-11-23T11:14:41.707Z,77.87
2018-11-23T11:15:45.879Z,42.88
2018-11-23T11:16:51.288Z,41.42
2018-11-23T11:17:55.904Z,44.45
2018-11-23T11:19:00.784Z,32.90
2018-11-23T11:20:05.647Z,29.70
2018-11-23T11:21:10.369Z,28.80
2018-11-23T11:22:15.125Z,30.50
2018-11-23T11:23:19.713Z,27.30
2018-11-23T11:24:24.751Z,28.92
2018-11-23T11:25:28.973Z,28.00
2018-11-23T11:26:33.175Z,27.42
2018-11-23T11:27:38.080Z,26.42
2018-11-23T11:28:42.281Z,26.57
2018-11-23T11:29:46.971Z,26.45
2018-11-23T11:30:51.783Z,26.85
2018-11-23T11:31:56.608Z,27.95
2018-11-23T11:33:01.217Z,25.75
2018-11-23T11:34:05.735Z,27.80
2018-11-23T11:35:10.945Z,28.35
2018-11-23T11:36:15.721Z,27.95
2018-11-23T11:37:20.136Z,26.52
2018-11-23T11:38:24.621Z,26.62
2018-11-23T11:39:29.371Z,27.87
2018-11-23T11:40:34.177Z,27.22
2018-11-23T11:41:38.487Z,27.77
2018-11-23T11:42:43.955Z,29.32
2018-11-23T11:43:48.270Z,27.32
2018-11-23T11:44:52.596Z,28.12
2018-11-23T11:45:57.258Z,26.95
2018-11-23T11:47:01.525Z,28.65
2018-11-23T11:48:11.916Z,29.10
2018-11-23T11:49:17.027Z,28.38
2018-11-23T11:50:21.197Z,28.62
2018-11-23T11:51:25.887Z,28.32
2018-11-23T11:52:30.779Z,29.90
2018-11-23T11:53:35.490Z,30.12
2018-11-23T11:54:40.254Z,29.27
2018-11-23T11:55:45.313Z,29.60
2018-11-23T11:56:49.966Z,29.00
2018-11-23T11:57:54.573Z,31.25
2018-11-23T11:58:59.188Z,30.62
2018-11-23T12:00:03.954Z,32.25
2018-11-23T12:01:08.280Z,29.35
2018-11-23T12:02:13.252Z,31.48
2018-11-23T12:03:17.787Z,32.98
2018-11-23T12:04:23.036Z,33.53
2018-11-23T12:05:27.607Z,32.38
2018-11-23T12:06:32.243Z,31.10
2018-11-23T12:07:37.149Z,31.80
2018-11-23T12:08:42.050Z,30.70
2018-11-23T12:09:46.984Z,32.30
2018-11-23T12:10:51.879Z,31.95
2018-11-23T12:11:56.460Z,32.42
2018-11-23T12:13:00.800Z,32.75
2018-11-23T12:14:05.328Z,31.70
2018-11-23T12:15:10.881Z,29.27
2018-11-23T12:16:15.637Z,29.07
2018-11-23T12:17:20.569Z,32.90
2018-11-23T12:18:25.476Z,32.40
2018-11-23T12:19:30.215Z,33.35
2018-11-23T12:20:34.822Z,31.27
2018-11-23T12:21:39.231Z,31.60
2018-11-23T12:22:43.813Z,28.98
2018-11-23T12:23:48.535Z,29.98
2018-11-23T12:24:53.251Z,30.60
2018-11-23T12:25:58.601Z,29.82
2018-11-23T12:27:03.147Z,31.95
2018-11-23T12:28:07.889Z,29.63
2018-11-23T12:29:12.894Z,32.28
2018-11-23T12:30:18.773Z,33.45
2018-11-23T12:31:24.197Z,33.28
2018-11-23T12:32:28.792Z,31.02
2018-11-23T12:33:33.855Z,29.98
2018-11-23T12:34:38.385Z,31.60
2018-11-23T12:35:43.050Z,31.93
2018-11-23T12:36:47.805Z,35.15
2018-11-23T12:37:52.069Z,36.50
2018-11-23T12:38:56.807Z,38.30
2018-11-23T12:40:01.221Z,37.80
2018-11-23T12:41:05.869Z,37.17
2018-11-23T12:42:10.126Z,36.00
2018-11-23T12:43:14.553Z,34.38
2018-11-23T12:44:18.792Z,36.90
2018-11-23T12:45:24.519Z,35.15
2018-11-23T12:46:29.031Z,34.27
2018-11-23T12:47:33.722Z,35.35
2018-11-23T12:48:38.124Z,32.67
2018-11-23T12:49:42.928Z,31.25
2018-11-23T12:50:47.862Z,33.10
2018-11-23T12:51:52.378Z,31.97
2018-11-23T12:52:56.992Z,33.40
2018-11-23T12:54:01.895Z,32.10
2018-11-23T12:55:07.301Z,36.40
2018-11-23T12:56:11.989Z,32.25
2018-11-23T12:57:16.880Z,29.85
2018-11-23T12:58:21.467Z,31.45
2018-11-23T12:59:26.255Z,32.15
2018-11-23T13:00:30.720Z,30.12
2018-11-23T13:01:35.372Z,32.25
2018-11-23T13:02:40.005Z,27.90
2018-11-23T13:03:44.438Z,30.30
2018-11-23T13:04:48.926Z,28.50
2018-11-23T13:05:53.511Z,27.93
2018-11-23T13:06:58.258Z,28.30
2018-11-23T13:08:05.166Z,30.50
2018-11-23T13:09:15.088Z,29.95
2018-11-23T13:10:19.869Z,26.95
2018-11-23T13:11:29.680Z,28.25
2018-11-23T13:12:34.738Z,28.65
2018-11-23T13:13:39.013Z,29.12
2018-11-23T13:14:44.142Z,28.95
2018-11-23T13:15:48.684Z,31.37
2018-11-23T13:16:53.412Z,31.30
2018-11-23T13:17:58.600Z,26.87
2018-11-23T13:19:03.124Z,29.42
2018-11-23T13:20:10.251Z,31.37
2018-11-23T13:21:14.976Z,30.72
2018-11-23T13:22:19.603Z,33.35
2018-11-23T13:23:24.080Z,32.17
2018-11-23T13:24:29.839Z,30.92
2018-11-23T13:25:35.063Z,29.80
2018-11-23T13:26:39.647Z,30.55
2018-11-23T13:27:44.323Z,29.42
2018-11-23T13:28:48.885Z,31.73
2018-11-23T13:29:53.581Z,31.68
2018-11-23T13:30:58.187Z,30.88
2018-11-23T13:32:02.932Z,32.25
2018-11-23T13:33:07.765Z,33.53
2018-11-23T13:34:12.346Z,34.63
2018-11-23T13:35:18.613Z,32.63
2018-11-23T13:36:23.371Z,29.92
2018-11-23T13:37:28.388Z,33.38
2018-11-23T13:38:33.196Z,31.70
2018-11-23T13:39:37.919Z,34.63
2018-11-23T13:40:42.077Z,33.40
2018-11-23T13:41:46.604Z,35.25
2018-11-23T13:42:51.730Z,33.42
2018-11-23T13:43:56.544Z,32.58
2018-11-23T13:45:00.962Z,32.73
2018-11-23T13:46:05.363Z,31.40
2018-11-23T13:47:10.663Z,36.08
2018-11-23T13:48:19.818Z,34.00
2018-11-23T13:49:19.581Z,36.63
2018-11-23T13:50:24.665Z,32.35
2018-11-23T13:51:29.022Z,31.23
2018-11-23T13:52:33.347Z,32.00
2018-11-23T13:53:38.125Z,31.25
2018-11-23T13:54:42.456Z,32.45
2018-11-23T13:55:47.045Z,32.00
2018-11-23T13:56:51.758Z,31.73
2018-11-23T13:57:56.194Z,32.58
2018-11-23T13:59:00.729Z,30.60
2018-11-23T14:00:07.656Z,29.67